CCGS Tanu — CGBY — position and weather

sailwx.info

Track history (hours):
 
Tides and Currents Weather Stations Pressure Air Temp Water Temp Dewpoint Dewpoint Depression Visibility Wind Speed Wind Dir Waves Ship Positions

CCGS Tanu (Canada)

Ship's website: http://www.ccg-gcc.gc.ca/vessels-navires/details_e.asp?id=M-5

Last reported at 2016-Apr-28 20:06 UTC. Time now 2016-May-02 05:50 UTC.
Position N 50°51' W 127°52'.

Length 54.5 m; beam 9.7 m; draft 3.7 m.

Type: SAR. MMSI: 316091000.

Date/timePositionNaut miles runAvg speedWind from/ knotsBaromVisibWave heightAir tempDewpointWater temp
2016-Apr-28 20:06N 50°51' W 127°52'0 0.0
2016-Apr-28 11:18N 50°51' W 127°52'0 0.0
2016-Apr-28 10:30N 50°51' W 127°52'0 0.0
2016-Apr-28 05:30N 50°51' W 127°52'0 0.0
2016-Apr-28 03:24N 50°51' W 127°52'16 8.0
2016-Apr-28 01:22N 50°45' W 127°28'1 0.5
2016-Apr-27 22:22N 50°43' W 127°29'0 0.0
2016-Apr-27 21:34N 50°43' W 127°29'0 0.0
2016-Apr-27 20:28N 50°43' W 127°29'0 0.0
2016-Apr-27 19:34N 50°43' W 127°29'0 0.0
2016-Apr-27 18:28N 50°43' W 127°29'0 0.0
2016-Apr-27 17:28N 50°43' W 127°29'0 0.0
2016-Apr-27 16:34N 50°43' W 127°29'0 0.0
2016-Apr-27 15:34N 50°43' W 127°29'0 0.0
2016-Apr-27 14:28N 50°43' W 127°29'0 0.0
2016-Apr-27 13:16N 50°43' W 127°29'0 0.0
2016-Apr-27 12:34N 50°43' W 127°29'0 0.0
2016-Apr-27 11:28N 50°43' W 127°29'0 0.0
2016-Apr-27 08:22N 50°43' W 127°29'0 0.0
2016-Apr-27 07:28N 50°43' W 127°29'0 0.0
2016-Apr-27 06:28N 50°43' W 127°29'0 0.0
2016-Apr-27 00:16N 50°43' W 127°29'0 0.0
2016-Apr-26 22:25N 50°43' W 127°29'0 0.0
2016-Apr-26 21:31N 50°43' W 127°29'0 0.0
2016-Apr-26 20:28N 50°43' W 127°29'0 0.0
2016-Apr-26 19:27N 50°43' W 127°29'1 0.5
2016-Apr-26 17:28N 50°43' W 127°28'0 0.0
2016-Apr-26 16:34N 50°43' W 127°28'2 2.0
2016-Apr-26 15:33N 50°45' W 127°28'0 0.1
2016-Apr-26 14:34N 50°45' W 127°28'6 5.7
2016-Apr-26 13:34N 50°51' W 127°31'7 7.4
2016-Apr-26 12:34N 50°55' W 127°40'7 7.4
2016-Apr-26 11:34N 51°01' W 127°47'9 9.1
2016-Apr-26 10:33N 51°10' W 127°51'55 9.2
2016-Apr-26 04:33N 52°05' W 128°01'7 6.9
2016-Apr-26 03:33N 52°10' W 128°08'7 6.8
2016-Apr-26 02:34N 52°14' W 128°16'  
Track history (hours):
 
Tides and Currents Weather Stations Pressure Air Temp Water Temp Dewpoint Dewpoint Depression Visibility Wind Speed Wind Dir Waves Ship Positions

CCGS Tanu (Canada)

Ship's website: http://www.ccg-gcc.gc.ca/vessels-navires/details_e.asp?id=M-5

Last reported at 2016-Apr-28 20:06 UTC. Time now 2016-May-02 05:50 UTC.
Position N 50°51' W 127°52'.

Length 54.5 m; beam 9.7 m; draft 3.7 m.

Type: SAR. MMSI: 316091000.

Date/timePositionNaut miles runAvg speedWind from/ knotsBaromVisibWave heightAir tempDewpointWater temp
2016-Apr-28 20:06N 50°51' W 127°52'0 0.0
2016-Apr-28 11:18N 50°51' W 127°52'0 0.0
2016-Apr-28 10:30N 50°51' W 127°52'0 0.0
2016-Apr-28 05:30N 50°51' W 127°52'0 0.0
2016-Apr-28 03:24N 50°51' W 127°52'16 8.0
2016-Apr-28 01:22N 50°45' W 127°28'1 0.5
2016-Apr-27 22:22N 50°43' W 127°29'0 0.0
2016-Apr-27 21:34N 50°43' W 127°29'0 0.0
2016-Apr-27 20:28N 50°43' W 127°29'0 0.0
2016-Apr-27 19:34N 50°43' W 127°29'0 0.0
2016-Apr-27 18:28N 50°43' W 127°29'0 0.0
2016-Apr-27 17:28N 50°43' W 127°29'0 0.0
2016-Apr-27 16:34N 50°43' W 127°29'0 0.0
2016-Apr-27 15:34N 50°43' W 127°29'0 0.0
2016-Apr-27 14:28N 50°43' W 127°29'0 0.0
2016-Apr-27 13:16N 50°43' W 127°29'0 0.0
2016-Apr-27 12:34N 50°43' W 127°29'0 0.0
2016-Apr-27 11:28N 50°43' W 127°29'0 0.0
2016-Apr-27 08:22N 50°43' W 127°29'0 0.0
2016-Apr-27 07:28N 50°43' W 127°29'0 0.0
2016-Apr-27 06:28N 50°43' W 127°29'0 0.0
2016-Apr-27 00:16N 50°43' W 127°29'0 0.0
2016-Apr-26 22:25N 50°43' W 127°29'0 0.0
2016-Apr-26 21:31N 50°43' W 127°29'0 0.0
2016-Apr-26 20:28N 50°43' W 127°29'0 0.0
2016-Apr-26 19:27N 50°43' W 127°29'1 0.5
2016-Apr-26 17:28N 50°43' W 127°28'0 0.0
2016-Apr-26 16:34N 50°43' W 127°28'2 2.0
2016-Apr-26 15:33N 50°45' W 127°28'0 0.1
2016-Apr-26 14:34N 50°45' W 127°28'6 5.7
2016-Apr-26 13:34N 50°51' W 127°31'7 7.4
2016-Apr-26 12:34N 50°55' W 127°40'7 7.4
2016-Apr-26 11:34N 51°01' W 127°47'9 9.1
2016-Apr-26 10:33N 51°10' W 127°51'55 9.2
2016-Apr-26 04:33N 52°05' W 128°01'7 6.9
2016-Apr-26 03:33N 52°10' W 128°08'7 6.8
2016-Apr-26 02:34N 52°14' W 128°16'  

Dump ship's entire track history